< < Back
Terminal Aerodrome Forecast


Current Version              Previous Versions:   1  2  3  4  5  6  7  8  9  

Terminal Aerodrome Forecast

824
FTUS42 KGSP 281153
TAFAVL
TAF
KAVL 281153Z 2812/2912 VRB03KT 3SM BR SCT002 BKN010
      TEMPO 2812/2813 1/2SM FG BKN002
     FM281400 16004KT P6SM FEW040 SCT200
     FM290300 00000KT 6SM BR SCT050 BKN150
     FM290700 00000KT P6SM BKN035
     FM290900 VRB02KT 1SM BR SCT005 BKN025=

Latest METAR

356
SAUS70 KWBC 290000
MTRAVL
METAR KAVL 282354Z 11003KT 10SM CLR 24/11 A3019 RMK AO2 SLP203 T02390111
10272 20239 53003


USA.gov is the U.S. government's official web portal to all federal, state and local government web resources and services.